createdAt,value
2023-01-22T00:00:33.480Z,101602.41
2023-01-22T00:01:35.886Z,101603.25
2023-01-22T00:02:38.079Z,101603.53
2023-01-22T00:03:41.655Z,101602.69
2023-01-22T00:04:43.862Z,101597.59
2023-01-22T00:05:47.276Z,101603.59
2023-01-22T00:06:49.572Z,101604.50
2023-01-22T00:07:51.805Z,101606.44
2023-01-22T00:08:54.318Z,101609.94
2023-01-22T00:09:56.689Z,101607.88
2023-01-22T00:10:59.088Z,101610.69
2023-01-22T00:12:01.460Z,101607.06
2023-01-22T00:13:03.865Z,101608.00
2023-01-22T00:14:06.174Z,101619.34
2023-01-22T00:15:08.898Z,101607.00
2023-01-22T00:16:14.499Z,101616.41
2023-01-22T00:17:16.954Z,101619.06
2023-01-22T00:18:19.820Z,101621.84
2023-01-22T00:19:22.018Z,101615.63
2023-01-22T00:20:24.236Z,101624.22
2023-01-22T00:21:27.766Z,101621.53
2023-01-22T00:22:30.819Z,101621.44
2023-01-22T00:23:33.290Z,101615.38
2023-01-22T00:24:35.542Z,101623.41
2023-01-22T00:25:37.738Z,101612.16
2023-01-22T00:26:40.392Z,101618.41
2023-01-22T00:27:42.767Z,101614.84
2023-01-22T00:28:45.684Z,101625.63
2023-01-22T00:29:47.852Z,101631.03
2023-01-22T00:31:00.301Z,101623.91
2023-01-22T00:32:02.852Z,101629.25
2023-01-22T00:33:05.944Z,101637.75
2023-01-22T00:34:08.911Z,101635.25
2023-01-22T00:35:11.297Z,101629.22
2023-01-22T00:36:19.281Z,101633.41
2023-01-22T00:37:23.149Z,101638.81
2023-01-22T00:38:25.389Z,101637.03
2023-01-22T00:39:27.681Z,101634.81
2023-01-22T00:40:29.846Z,101637.34
2023-01-22T00:41:32.130Z,101636.22
2023-01-22T00:42:34.372Z,101656.44
2023-01-22T00:43:38.746Z,101637.81
2023-01-22T00:44:40.977Z,101638.91
2023-01-22T00:45:43.160Z,101640.88
2023-01-22T00:46:45.544Z,101639.13
2023-01-22T00:47:47.751Z,101641.47
2023-01-22T00:48:50.249Z,101651.06
2023-01-22T00:49:52.575Z,101645.56
2023-01-22T00:50:54.966Z,101645.81
2023-01-22T00:51:57.265Z,101643.41
2023-01-22T00:53:00.520Z,101646.09
2023-01-22T00:54:02.940Z,101647.88
2023-01-22T00:55:06.197Z,101649.75
2023-01-22T00:56:08.656Z,101646.50
2023-01-22T00:57:10.932Z,101647.16
2023-01-22T00:58:13.340Z,101647.03
2023-01-22T00:59:15.767Z,101641.66
2023-01-22T01:00:20.171Z,101649.59
2023-01-22T01:01:23.749Z,101645.28
2023-01-22T01:02:25.954Z,101642.16
2023-01-22T01:03:31.776Z,101638.28
2023-01-22T01:04:34.257Z,101643.28
2023-01-22T01:05:36.456Z,101638.91
2023-01-22T01:06:39.108Z,101641.31
2023-01-22T01:07:41.268Z,101642.28
2023-01-22T01:08:44.409Z,101640.75
2023-01-22T01:09:49.151Z,101637.09
2023-01-22T01:10:59.939Z,101640.78
2023-01-22T01:12:02.594Z,101638.06
2023-01-22T01:13:04.761Z,101642.59
2023-01-22T01:14:07.121Z,101640.66
2023-01-22T01:15:09.776Z,101643.63
2023-01-22T01:16:15.719Z,101642.22
2023-01-22T01:17:18.129Z,101638.16
2023-01-22T01:18:21.576Z,101648.56
2023-01-22T01:19:24.021Z,101646.59
2023-01-22T01:20:26.286Z,101649.44
2023-01-22T01:21:29.376Z,101650.47
2023-01-22T01:22:31.587Z,101649.84
2023-01-22T01:23:35.167Z,101648.19
2023-01-22T01:24:37.432Z,101653.97
2023-01-22T01:25:41.347Z,101644.94
2023-01-22T01:26:43.625Z,101651.13
2023-01-22T01:27:45.785Z,101640.41
2023-01-22T01:28:48.397Z,101644.94
2023-01-22T01:29:50.617Z,101645.00
2023-01-22T01:30:53.669Z,101642.50
2023-01-22T01:31:57.828Z,101649.72
2023-01-22T01:33:00.065Z,101639.28
2023-01-22T01:34:03.333Z,101636.06
2023-01-22T01:35:06.705Z,101644.63
2023-01-22T01:36:13.711Z,101647.31
2023-01-22T01:37:17.109Z,101650.19
2023-01-22T01:38:19.612Z,101641.34
2023-01-22T01:39:22.472Z,101637.84
2023-01-22T01:40:24.920Z,101636.78
2023-01-22T01:41:27.417Z,101633.06
2023-01-22T01:42:35.956Z,101642.69
2023-01-22T01:43:39.169Z,101646.16
2023-01-22T01:44:42.838Z,101640.22
2023-01-22T01:45:45.276Z,101640.59
2023-01-22T01:46:57.913Z,101631.94
2023-01-22T01:48:27.986Z,101634.13
2023-01-22T01:49:35.230Z,101639.34
2023-01-22T01:50:41.756Z,101646.06
2023-01-22T01:51:44.063Z,101642.81
2023-01-22T01:52:46.480Z,101640.97
2023-01-22T01:53:50.604Z,101638.50
2023-01-22T01:54:55.948Z,101648.31
2023-01-22T01:56:01.225Z,101648.44
2023-01-22T01:57:09.953Z,101650.63
2023-01-22T01:58:21.383Z,101645.34
2023-01-22T01:59:24.035Z,101645.50
2023-01-22T02:00:32.588Z,101647.88
2023-01-22T02:01:41.283Z,101648.56
2023-01-22T02:02:44.107Z,101647.69
2023-01-22T02:03:47.495Z,101651.19
2023-01-22T02:04:50.845Z,101643.38
2023-01-22T02:05:53.184Z,101649.59
2023-01-22T02:06:55.490Z,101655.84
2023-01-22T02:07:58.107Z,101656.78
2023-01-22T02:09:00.574Z,101658.44
2023-01-22T02:10:06.200Z,101658.56
2023-01-22T02:11:12.405Z,101653.91
2023-01-22T02:12:14.845Z,101659.97
2023-01-22T02:13:25.460Z,101659.84
2023-01-22T02:14:30.027Z,101659.97
2023-01-22T02:15:32.168Z,101651.19
2023-01-22T02:16:34.614Z,101653.97
2023-01-22T02:17:37.065Z,101650.72
2023-01-22T02:18:39.499Z,101653.84
2023-01-22T02:19:42.682Z,101659.13
2023-01-22T02:20:57.350Z,101653.03
2023-01-22T02:21:59.769Z,101653.22
2023-01-22T02:23:01.990Z,101654.91
2023-01-22T02:24:08.679Z,101657.75
2023-01-22T02:25:10.942Z,101661.97
2023-01-22T02:26:14.483Z,101664.31
2023-01-22T02:27:16.860Z,101666.16
2023-01-22T02:28:19.629Z,101668.94
2023-01-22T02:29:23.090Z,101662.75
2023-01-22T02:30:25.765Z,101666.34
2023-01-22T02:31:28.108Z,101664.34
2023-01-22T02:32:30.340Z,101665.28
2023-01-22T02:33:32.760Z,101672.47
2023-01-22T02:34:34.961Z,101670.56
2023-01-22T02:35:37.785Z,101669.47
2023-01-22T02:36:40.679Z,101663.50
2023-01-22T02:37:43.876Z,101667.88
2023-01-22T02:38:46.091Z,101668.06
2023-01-22T02:39:48.359Z,101675.41
2023-01-22T02:40:50.595Z,101668.75
2023-01-22T02:41:55.148Z,101662.00
2023-01-22T02:42:57.637Z,101670.06
2023-01-22T02:43:59.807Z,101669.03
2023-01-22T02:45:02.212Z,101670.75
2023-01-22T02:46:05.531Z,101663.34
2023-01-22T02:47:07.890Z,101662.34
2023-01-22T02:48:10.409Z,101668.31
2023-01-22T02:49:12.627Z,101665.78
2023-01-22T02:50:15.621Z,101673.50
2023-01-22T02:51:18.103Z,101665.84
2023-01-22T02:52:22.482Z,101673.34
2023-01-22T02:53:24.769Z,101672.59
2023-01-22T02:54:26.990Z,101665.59
2023-01-22T02:55:29.384Z,101672.72
2023-01-22T02:56:34.173Z,101672.56
2023-01-22T02:57:36.700Z,101673.41
2023-01-22T02:58:38.913Z,101671.59
2023-01-22T02:59:41.343Z,101675.31
2023-01-22T03:00:46.205Z,101671.94
2023-01-22T03:01:48.611Z,101673.66
2023-01-22T03:02:51.548Z,101677.78
2023-01-22T03:04:10.705Z,101680.66
2023-01-22T03:05:12.999Z,101679.69
2023-01-22T03:06:21.349Z,101669.94
2023-01-22T03:07:23.596Z,101666.81
2023-01-22T03:08:26.708Z,101674.59
2023-01-22T03:09:29.977Z,101681.16
2023-01-22T03:10:32.222Z,101683.53
2023-01-22T03:11:37.311Z,101676.78
2023-01-22T03:13:06.165Z,101685.94
2023-01-22T03:14:27.249Z,101683.16
2023-01-22T03:15:47.884Z,101679.63
2023-01-22T03:17:08.955Z,101680.06
2023-01-22T03:18:29.839Z,101683.28
2023-01-22T03:19:52.382Z,101679.81
2023-01-22T03:21:13.508Z,101684.91
2023-01-22T03:22:19.772Z,101687.41
2023-01-22T03:23:21.999Z,101683.88
2023-01-22T03:24:24.382Z,101684.25
2023-01-22T03:25:26.935Z,101694.66
2023-01-22T03:26:31.512Z,101687.91
2023-01-22T03:27:35.193Z,101691.22
2023-01-22T03:28:38.127Z,101689.69
2023-01-22T03:29:40.451Z,101690.66
2023-01-22T03:30:43.067Z,101682.31
2023-01-22T03:31:48.416Z,101679.59
2023-01-22T03:32:50.710Z,101689.31
2023-01-22T03:33:54.135Z,101688.44
2023-01-22T03:34:56.515Z,101684.75
2023-01-22T03:36:04.795Z,101687.31
2023-01-22T03:37:08.453Z,101687.41
2023-01-22T03:38:12.001Z,101688.94
2023-01-22T03:39:14.530Z,101686.06
2023-01-22T03:40:18.261Z,101686.97
2023-01-22T03:41:20.588Z,101692.38
2023-01-22T03:42:25.361Z,101686.13
2023-01-22T03:43:28.042Z,101695.22
2023-01-22T03:44:30.280Z,101687.41
2023-01-22T03:45:33.659Z,101687.31
2023-01-22T03:46:36.202Z,101693.53
2023-01-22T03:47:39.137Z,101692.41
2023-01-22T03:48:56.552Z,101693.91
2023-01-22T03:49:58.882Z,101692.19
2023-01-22T03:51:06.150Z,101693.34
2023-01-22T03:52:08.579Z,101697.81
2023-01-22T03:53:10.746Z,101700.28
2023-01-22T03:54:15.389Z,101696.13
2023-01-22T03:55:17.813Z,101701.25
2023-01-22T03:56:22.603Z,101701.28
2023-01-22T03:57:25.479Z,101711.03
2023-01-22T03:58:30.071Z,101710.22
2023-01-22T03:59:32.451Z,101707.75
2023-01-22T04:00:34.830Z,101714.03
2023-01-22T04:01:40.195Z,101711.53
2023-01-22T04:02:43.507Z,101719.91
2023-01-22T04:03:54.132Z,101717.19
2023-01-22T04:04:59.548Z,101717.38
2023-01-22T04:06:04.111Z,101720.50
2023-01-22T04:07:06.312Z,101709.78
2023-01-22T04:08:08.532Z,101721.25
2023-01-22T04:09:15.288Z,101718.16
2023-01-22T04:10:24.555Z,101722.59
2023-01-22T04:11:26.732Z,101721.63
2023-01-22T04:12:29.308Z,101722.69
2023-01-22T04:13:33.703Z,101725.69
2023-01-22T04:14:36.364Z,101725.06
2023-01-22T04:15:39.590Z,101730.41
2023-01-22T04:16:52.091Z,101726.59
2023-01-22T04:18:12.817Z,101727.72
2023-01-22T04:19:35.393Z,101733.22
2023-01-22T04:20:55.956Z,101731.19
2023-01-22T04:22:09.909Z,101726.31
2023-01-22T04:23:13.092Z,101724.91
2023-01-22T04:24:15.752Z,101728.50
2023-01-22T04:25:18.098Z,101738.69
2023-01-22T04:26:20.466Z,101742.28
2023-01-22T04:27:23.497Z,101732.75
2023-01-22T04:28:27.806Z,101743.44
2023-01-22T04:29:30.866Z,101747.81
2023-01-22T04:30:33.749Z,101741.88
2023-01-22T04:31:54.708Z,101742.88
2023-01-22T04:33:17.130Z,101740.16
2023-01-22T04:34:33.620Z,101746.31
2023-01-22T04:35:51.298Z,101749.06
2023-01-22T04:36:53.673Z,101749.22
2023-01-22T04:37:57.977Z,101750.19
2023-01-22T04:39:00.453Z,101748.97
2023-01-22T04:40:03.885Z,101756.88
2023-01-22T04:41:07.479Z,101747.38
2023-01-22T04:42:11.539Z,101748.78
2023-01-22T04:43:13.810Z,101752.59
2023-01-22T04:44:17.481Z,101746.59
2023-01-22T04:45:21.065Z,101754.53
2023-01-22T04:46:23.346Z,101758.44
2023-01-22T04:47:27.388Z,101748.75
2023-01-22T04:48:30.780Z,101753.03
2023-01-22T04:49:33.133Z,101748.41
2023-01-22T04:50:35.551Z,101746.75
2023-01-22T04:51:37.918Z,101755.50
2023-01-22T04:52:40.538Z,101754.88
2023-01-22T04:53:42.886Z,101756.06
2023-01-22T04:54:45.346Z,101754.28
2023-01-22T04:55:48.748Z,101756.78
2023-01-22T04:56:51.162Z,101752.13
2023-01-22T04:58:00.745Z,101761.19
2023-01-22T04:59:04.493Z,101765.00
2023-01-22T05:00:08.071Z,101758.22
2023-01-22T05:01:10.294Z,101759.28
2023-01-22T05:02:12.577Z,101757.63
2023-01-22T05:03:17.076Z,101760.16
2023-01-22T05:04:21.673Z,101756.97
2023-01-22T05:05:24.881Z,101761.41
2023-01-22T05:06:27.240Z,101762.91
2023-01-22T05:07:29.475Z,101770.91
2023-01-22T05:08:32.039Z,101761.34
2023-01-22T05:09:34.293Z,101769.25
2023-01-22T05:10:37.013Z,101760.66
2023-01-22T05:11:41.435Z,101767.00
2023-01-22T05:12:43.635Z,101765.94
2023-01-22T05:13:46.078Z,101764.72
2023-01-22T05:14:48.725Z,101760.38
2023-01-22T05:15:50.911Z,101760.50
2023-01-22T05:16:53.389Z,101764.19
2023-01-22T05:17:55.535Z,101765.88
2023-01-22T05:18:57.916Z,101759.63
2023-01-22T05:20:00.256Z,101764.16
2023-01-22T05:21:02.682Z,101761.59
2023-01-22T05:22:06.623Z,101768.22
2023-01-22T05:23:09.348Z,101769.06
2023-01-22T05:24:11.962Z,101756.28
2023-01-22T05:25:14.748Z,101763.38
2023-01-22T05:26:17.060Z,101762.25
2023-01-22T05:27:34.220Z,101774.06
2023-01-22T05:28:41.518Z,101769.63
2023-01-22T05:29:57.820Z,101761.72
2023-01-22T05:31:12.085Z,101770.53
2023-01-22T05:32:23.007Z,101773.72
2023-01-22T05:33:30.569Z,101777.66
2023-01-22T05:34:33.039Z,101773.91
2023-01-22T05:35:35.717Z,101772.00
2023-01-22T05:36:37.952Z,101771.28
2023-01-22T05:37:49.498Z,101777.34
2023-01-22T05:38:52.817Z,101783.31
2023-01-22T05:39:56.278Z,101774.50
2023-01-22T05:41:00.575Z,101784.25
2023-01-22T05:42:06.767Z,101779.22
2023-01-22T05:43:09.418Z,101782.75
2023-01-22T05:44:13.584Z,101775.81
2023-01-22T05:45:17.099Z,101787.97
2023-01-22T05:46:44.176Z,101784.38
2023-01-22T05:47:55.327Z,101784.66
2023-01-22T05:49:17.932Z,101790.50
2023-01-22T05:50:21.444Z,101782.22
2023-01-22T05:51:32.340Z,101790.72
2023-01-22T05:52:34.962Z,101793.47
2023-01-22T05:53:37.502Z,101791.72
2023-01-22T05:54:40.039Z,101795.06
2023-01-22T05:55:43.207Z,101783.59
2023-01-22T05:56:45.915Z,101797.75
2023-01-22T05:57:48.571Z,101792.94
2023-01-22T05:58:53.337Z,101796.56
2023-01-22T05:59:55.543Z,101795.03
2023-01-22T06:00:58.585Z,101788.22
2023-01-22T06:02:05.549Z,101792.84
2023-01-22T06:03:10.579Z,101792.16
2023-01-22T06:04:21.151Z,101786.41
2023-01-22T06:05:24.569Z,101787.69
2023-01-22T06:06:33.873Z,101792.28
2023-01-22T06:07:37.053Z,101793.56
2023-01-22T06:08:39.913Z,101808.03
2023-01-22T06:09:42.740Z,101800.03
2023-01-22T06:10:45.088Z,101794.94
2023-01-22T06:11:48.752Z,101803.75
2023-01-22T06:12:51.325Z,101801.69
2023-01-22T06:13:53.646Z,101796.44
2023-01-22T06:14:57.708Z,101805.63
2023-01-22T06:16:00.722Z,101804.81
2023-01-22T06:17:25.683Z,101803.16
2023-01-22T06:18:32.789Z,101814.97
2023-01-22T06:19:36.815Z,101809.47
2023-01-22T06:20:40.136Z,101806.94
2023-01-22T06:21:44.092Z,101811.22
2023-01-22T06:22:50.847Z,101811.03
2023-01-22T06:23:53.262Z,101814.34
2023-01-22T06:24:55.746Z,101819.69
2023-01-22T06:26:03.154Z,101816.69
2023-01-22T06:27:05.556Z,101808.03
2023-01-22T06:28:15.435Z,101821.09
2023-01-22T06:29:19.463Z,101824.75
2023-01-22T06:30:23.407Z,101826.44
2023-01-22T06:31:25.901Z,101817.25
2023-01-22T06:32:28.510Z,101826.03
2023-01-22T06:33:33.298Z,101824.53
2023-01-22T06:34:35.704Z,101825.31
2023-01-22T06:35:40.839Z,101835.94
2023-01-22T06:36:43.737Z,101830.59
2023-01-22T06:37:46.825Z,101828.94
2023-01-22T06:38:49.491Z,101830.97
2023-01-22T06:39:56.592Z,101830.78
2023-01-22T06:41:11.070Z,101833.63
2023-01-22T06:42:13.739Z,101830.88
2023-01-22T06:43:16.246Z,101837.50
2023-01-22T06:44:19.015Z,101837.16
2023-01-22T06:45:21.772Z,101835.19
2023-01-22T06:46:28.740Z,101837.16
2023-01-22T06:47:44.790Z,101841.78
2023-01-22T06:48:49.832Z,101849.28
2023-01-22T06:49:52.169Z,101843.31
2023-01-22T06:50:58.557Z,101843.31
2023-01-22T06:52:00.960Z,101845.31
2023-01-22T06:53:03.601Z,101845.84
2023-01-22T06:54:05.829Z,101848.75
2023-01-22T06:55:08.431Z,101846.16
2023-01-22T06:56:13.528Z,101848.84
2023-01-22T06:57:16.227Z,101845.53
2023-01-22T06:58:18.607Z,101854.81
2023-01-22T06:59:20.798Z,101851.34
2023-01-22T07:00:23.575Z,101854.22
2023-01-22T07:01:26.088Z,101854.53
2023-01-22T07:02:28.447Z,101853.66
2023-01-22T07:03:31.832Z,101854.63
2023-01-22T07:04:34.034Z,101857.06
2023-01-22T07:05:36.401Z,101861.28
2023-01-22T07:06:38.585Z,101859.75
2023-01-22T07:07:41.741Z,101871.88
2023-01-22T07:08:44.301Z,101863.72
2023-01-22T07:09:46.510Z,101869.09
2023-01-22T07:10:48.850Z,101870.03
2023-01-22T07:11:51.011Z,101873.72
2023-01-22T07:13:02.087Z,101877.44
2023-01-22T07:14:04.266Z,101881.06
2023-01-22T07:15:07.852Z,101876.19
2023-01-22T07:16:10.111Z,101886.91
2023-01-22T07:17:12.326Z,101884.38
2023-01-22T07:18:15.643Z,101883.94
2023-01-22T07:19:18.077Z,101885.34
2023-01-22T07:20:22.078Z,101883.72
2023-01-22T07:21:24.504Z,101890.75
2023-01-22T07:22:26.646Z,101891.63
2023-01-22T07:23:29.612Z,101892.91
2023-01-22T07:24:31.922Z,101897.41
2023-01-22T07:25:34.338Z,101896.78
2023-01-22T07:26:37.437Z,101891.84
2023-01-22T07:27:39.945Z,101899.41
2023-01-22T07:28:44.149Z,101896.69
2023-01-22T07:29:47.541Z,101890.59
2023-01-22T07:30:50.024Z,101887.88
2023-01-22T07:31:52.319Z,101900.22
2023-01-22T07:32:54.595Z,101900.91
2023-01-22T07:33:56.856Z,101898.28
2023-01-22T07:34:59.099Z,101909.13
2023-01-22T07:36:01.365Z,101899.38
2023-01-22T07:37:03.996Z,101900.81
2023-01-22T07:38:07.114Z,101907.41
2023-01-22T07:39:09.482Z,101907.47
2023-01-22T07:40:12.079Z,101911.03
2023-01-22T07:41:25.398Z,101903.94
2023-01-22T07:42:28.453Z,101900.97
2023-01-22T07:43:32.250Z,101905.34
2023-01-22T07:44:37.093Z,101902.94
2023-01-22T07:45:39.302Z,101910.84
2023-01-22T07:46:41.690Z,101912.47
2023-01-22T07:47:56.143Z,101914.28
2023-01-22T07:48:58.654Z,101911.94
2023-01-22T07:50:00.798Z,101916.50
2023-01-22T07:51:05.470Z,101920.06
2023-01-22T07:52:07.707Z,101910.66
2023-01-22T07:53:11.748Z,101921.56
2023-01-22T07:54:13.974Z,101920.13
2023-01-22T07:55:16.394Z,101916.75
2023-01-22T07:56:19.215Z,101910.09
2023-01-22T07:57:21.392Z,101917.59
2023-01-22T07:58:23.564Z,101919.72
2023-01-22T07:59:26.125Z,101923.84
2023-01-22T08:00:28.344Z,101923.16
2023-01-22T08:01:30.532Z,101923.47
2023-01-22T08:02:32.996Z,101922.59
2023-01-22T08:03:37.786Z,101928.16
2023-01-22T08:04:41.666Z,101936.88
2023-01-22T08:05:44.068Z,101937.03
2023-01-22T08:06:46.311Z,101936.94
2023-01-22T08:07:48.791Z,101936.13
2023-01-22T08:08:50.985Z,101942.34
2023-01-22T08:09:53.349Z,101935.69
2023-01-22T08:10:59.241Z,101943.59
2023-01-22T08:12:01.489Z,101944.44
2023-01-22T08:13:04.079Z,101945.06
2023-01-22T08:14:06.250Z,101941.75
2023-01-22T08:15:09.781Z,101943.00
2023-01-22T08:16:12.025Z,101942.50
2023-01-22T08:17:14.365Z,101947.22
2023-01-22T08:18:18.844Z,101948.75
2023-01-22T08:19:21.912Z,101947.63
2023-01-22T08:20:24.817Z,101955.44
2023-01-22T08:21:26.992Z,101946.34
2023-01-22T08:22:29.166Z,101955.94
2023-01-22T08:23:31.627Z,101956.19
2023-01-22T08:24:36.537Z,101950.50
2023-01-22T08:25:38.999Z,101949.25
2023-01-22T08:26:41.219Z,101948.44
2023-01-22T08:27:43.460Z,101951.63
2023-01-22T08:28:45.695Z,101946.28
2023-01-22T08:29:50.112Z,101949.38
2023-01-22T08:30:52.322Z,101946.66
2023-01-22T08:31:54.897Z,101953.97
2023-01-22T08:32:57.428Z,101959.25
2023-01-22T08:34:00.104Z,101962.84
2023-01-22T08:35:02.650Z,101954.53
2023-01-22T08:36:06.033Z,101956.84
2023-01-22T08:37:08.594Z,101955.41
2023-01-22T08:38:11.003Z,101958.97
2023-01-22T08:39:13.838Z,101963.22
2023-01-22T08:40:18.443Z,101964.28
2023-01-22T08:41:21.029Z,101963.97
2023-01-22T08:42:23.288Z,101967.41
2023-01-22T08:43:25.703Z,101964.78
2023-01-22T08:44:28.098Z,101972.69
2023-01-22T08:45:30.462Z,101959.34
2023-01-22T08:46:32.806Z,101969.78
2023-01-22T08:47:35.543Z,101975.78
2023-01-22T08:48:37.735Z,101970.50
2023-01-22T08:49:39.887Z,101971.56
2023-01-22T08:50:43.483Z,101965.91
2023-01-22T08:51:45.832Z,101973.50
2023-01-22T08:52:48.120Z,101984.97
2023-01-22T08:53:51.222Z,101980.31
2023-01-22T08:54:53.567Z,101977.97
2023-01-22T08:55:55.935Z,101976.97
2023-01-22T08:56:58.103Z,101971.94
2023-01-22T08:58:00.342Z,101981.59
2023-01-22T08:59:06.406Z,101977.59
2023-01-22T09:00:09.335Z,101979.53
2023-01-22T09:01:17.027Z,101985.34
2023-01-22T09:02:19.280Z,101978.69
2023-01-22T09:03:22.499Z,101989.41
2023-01-22T09:04:24.672Z,101983.66
2023-01-22T09:05:28.321Z,101990.91
2023-01-22T09:06:30.508Z,101986.22
2023-01-22T09:07:32.903Z,101991.44
2023-01-22T09:08:35.120Z,101985.34
2023-01-22T09:09:37.417Z,101986.78
2023-01-22T09:10:39.896Z,101993.78
2023-01-22T09:11:42.075Z,101995.63
2023-01-22T09:12:44.306Z,101994.22
2023-01-22T09:13:46.458Z,101996.88
2023-01-22T09:14:48.745Z,102005.56
2023-01-22T09:15:51.093Z,102000.88
2023-01-22T09:16:53.781Z,102006.03
2023-01-22T09:17:55.963Z,101996.91
2023-01-22T09:18:58.092Z,102002.38
2023-01-22T09:20:00.272Z,102000.88
2023-01-22T09:21:04.265Z,102001.97
2023-01-22T09:22:07.569Z,101997.06
2023-01-22T09:23:09.751Z,101993.00
2023-01-22T09:24:12.141Z,101995.88
2023-01-22T09:25:15.052Z,101996.44
2023-01-22T09:26:17.755Z,101988.53
2023-01-22T09:27:19.963Z,101995.44
2023-01-22T09:28:22.154Z,102000.03
2023-01-22T09:29:24.617Z,101994.50
2023-01-22T09:30:30.154Z,102000.44
2023-01-22T09:31:36.941Z,102000.63
2023-01-22T09:32:39.183Z,102006.91
2023-01-22T09:33:41.359Z,102004.69
2023-01-22T09:34:43.703Z,102001.06
2023-01-22T09:35:45.872Z,102005.50
2023-01-22T09:36:48.735Z,101995.94
2023-01-22T09:37:50.943Z,101998.00
2023-01-22T09:38:53.530Z,102000.81
2023-01-22T09:39:55.821Z,102001.13
2023-01-22T09:40:59.587Z,102005.06
2023-01-22T09:42:04.255Z,101999.38
2023-01-22T09:43:19.789Z,102005.56
2023-01-22T09:44:27.737Z,102004.81
2023-01-22T09:45:30.230Z,102003.22
2023-01-22T09:46:47.193Z,101997.91
2023-01-22T09:47:53.411Z,102004.47
2023-01-22T09:49:08.273Z,102009.50
2023-01-22T09:50:25.758Z,102011.81
2023-01-22T09:51:28.250Z,102008.38
2023-01-22T09:52:34.789Z,102003.34
2023-01-22T09:53:37.039Z,101999.28
2023-01-22T09:54:39.239Z,101998.16
2023-01-22T09:55:46.997Z,101992.72
2023-01-22T09:56:51.969Z,101994.78
2023-01-22T09:57:56.470Z,101994.81
2023-01-22T09:59:01.699Z,101994.50
2023-01-22T10:00:04.668Z,101994.56
2023-01-22T10:01:14.411Z,102005.56
2023-01-22T10:02:36.601Z,102000.88
2023-01-22T10:03:45.924Z,102003.22
2023-01-22T10:04:52.844Z,102000.94
2023-01-22T10:06:02.143Z,101994.88
2023-01-22T10:07:23.937Z,102002.75
2023-01-22T10:08:43.998Z,102005.50
2023-01-22T10:09:53.282Z,101995.84
2023-01-22T10:10:55.507Z,102001.06
2023-01-22T10:11:59.841Z,101992.66
2023-01-22T10:13:23.433Z,101999.63
2023-01-22T10:14:29.741Z,102001.56
2023-01-22T10:15:33.029Z,101999.81
2023-01-22T10:16:36.429Z,102001.59
2023-01-22T10:17:39.673Z,101993.09
2023-01-22T10:19:06.133Z,101991.78
2023-01-22T10:20:12.470Z,101997.38
2023-01-22T10:21:27.244Z,101983.59
2023-01-22T10:22:30.754Z,102001.97
2023-01-22T10:23:34.436Z,101997.06
2023-01-22T10:24:37.058Z,101998.00
2023-01-22T10:25:39.352Z,101994.81
2023-01-22T10:26:51.934Z,102002.59
2023-01-22T10:28:00.931Z,102001.50
2023-01-22T10:29:09.302Z,101999.66
2023-01-22T10:30:14.944Z,102000.72
2023-01-22T10:31:28.471Z,102005.19
2023-01-22T10:32:32.428Z,102004.63
2023-01-22T10:33:38.897Z,102005.25
2023-01-22T10:34:41.656Z,102006.16
2023-01-22T10:35:47.324Z,102004.28
2023-01-22T10:36:52.283Z,102003.66
2023-01-22T10:37:56.325Z,102006.53
2023-01-22T10:39:04.802Z,101995.09
2023-01-22T10:40:21.725Z,102003.13
2023-01-22T10:41:23.947Z,102003.00
2023-01-22T10:42:28.836Z,102004.06
2023-01-22T10:43:39.291Z,101997.97
2023-01-22T10:44:41.646Z,102000.09
2023-01-22T10:45:59.777Z,102006.16
2023-01-22T10:47:12.294Z,102007.84
2023-01-22T10:48:16.311Z,101999.66
2023-01-22T10:49:22.991Z,102004.09
2023-01-22T10:50:25.508Z,102006.91
2023-01-22T10:51:42.291Z,102008.63
2023-01-22T10:52:50.360Z,102006.41
2023-01-22T10:53:56.155Z,102003.00
2023-01-22T10:55:00.254Z,102012.84
2023-01-22T10:56:05.134Z,102015.38
2023-01-22T10:57:34.250Z,102024.22
2023-01-22T10:58:39.804Z,102026.09
2023-01-22T10:59:49.446Z,102019.41
2023-01-22T11:01:23.963Z,102017.63
2023-01-22T11:02:26.636Z,102019.00
2023-01-22T11:03:35.536Z,102021.19
2023-01-22T11:04:37.824Z,102019.19
2023-01-22T11:05:45.734Z,102013.06
2023-01-22T11:06:52.581Z,102014.00
2023-01-22T11:08:03.546Z,102015.91
2023-01-22T11:09:21.087Z,102015.50
2023-01-22T11:10:32.238Z,102015.53
2023-01-22T11:11:45.383Z,102015.28
2023-01-22T11:12:54.926Z,102012.44
2023-01-22T11:14:04.450Z,102016.22
2023-01-22T11:15:20.750Z,102015.94
2023-01-22T11:16:25.396Z,102014.34
2023-01-22T11:17:46.686Z,102005.09
2023-01-22T11:18:55.409Z,102009.72
2023-01-22T11:20:03.104Z,102012.22
2023-01-22T11:21:14.672Z,102015.84
2023-01-22T11:22:35.320Z,102019.38
2023-01-22T11:23:56.557Z,102019.81
2023-01-22T11:24:59.422Z,102027.72
2023-01-22T11:26:24.493Z,102020.19
2023-01-22T11:28:07.629Z,102016.50
2023-01-22T11:29:28.646Z,102023.84
2023-01-22T11:31:16.010Z,102018.53
2023-01-22T11:32:29.440Z,102007.84
2023-01-22T11:33:54.482Z,102012.59
2023-01-22T11:35:27.183Z,102019.09
2023-01-22T11:36:40.327Z,102011.53
2023-01-22T11:37:57.805Z,102009.50
2023-01-22T11:39:11.560Z,102007.16
2023-01-22T11:40:23.693Z,101998.69
2023-01-22T11:41:50.367Z,102000.63
2023-01-22T11:43:31.541Z,102006.56
2023-01-22T11:45:03.775Z,102004.97
2023-01-22T11:46:24.346Z,102005.72
2023-01-22T11:47:41.637Z,102006.31
2023-01-22T11:49:22.931Z,101999.38
2023-01-22T11:50:30.587Z,102004.06
2023-01-22T11:51:47.774Z,102007.34
2023-01-22T11:53:19.338Z,102000.66
2023-01-22T11:54:32.678Z,101992.69
2023-01-22T11:55:56.549Z,101999.47
2023-01-22T11:57:30.183Z,101991.78
2023-01-22T11:58:51.974Z,101999.53
2023-01-22T12:00:16.993Z,101999.47
2023-01-22T12:01:23.947Z,101995.97
2023-01-22T12:02:53.246Z,101999.13
2023-01-22T12:04:18.165Z,101996.59
2023-01-22T12:05:23.211Z,101994.56
2023-01-22T12:07:00.326Z,101991.66
2023-01-22T12:08:30.809Z,101993.38
2023-01-22T12:10:02.042Z,101997.63
2023-01-22T12:11:15.502Z,101993.06
2023-01-22T12:12:29.551Z,102004.81
2023-01-22T12:13:37.621Z,102002.34
2023-01-22T12:14:58.062Z,101997.47
2023-01-22T12:16:22.050Z,101992.69
2023-01-22T12:17:36.333Z,101990.88
2023-01-22T12:18:56.827Z,101988.41
2023-01-22T12:20:31.701Z,101997.22
2023-01-22T12:21:52.284Z,101991.72
2023-01-22T12:23:15.470Z,101994.59
2023-01-22T12:24:27.325Z,101995.09
2023-01-22T12:25:48.111Z,101995.66
2023-01-22T12:27:02.605Z,101998.03
2023-01-22T12:28:28.355Z,101999.78
2023-01-22T12:29:41.709Z,101997.03
2023-01-22T12:30:50.893Z,102002.09
2023-01-22T12:32:12.930Z,101999.00
2023-01-22T12:33:20.678Z,102005.44
2023-01-22T12:34:30.904Z,102009.69
2023-01-22T12:35:33.092Z,102009.25